Arthur Brusco — WDC3449 — position and weather

sailwx.info

Track history (hours):
 
Tides and Currents Weather Stations Pressure Air Temp Water Temp Dewpoint Dewpoint Depression Visibility Wind Speed Wind Dir Waves Ship Positions

Arthur Brusco

Owner: Brusco Tug & Barge, Inc, Longview, WA. More information available from US FCC via Universal Licensing System and Coast Guard Vessel Documentation Center.

Last reported at 2015-Jul-01 01:33 UTC. Time now 2015-Jul-01 01:56 UTC.
Position N 37°45' W 122°22'.

Length 35 m; draft 3.2 m.

Type: Other ship. MMSI: 271040404.

Date/timePositionNaut miles runAvg speedWind from/ knotsBaromVisibWave heightAir tempDewpointWater temp
2015-Jul-01 01:33N 37°45' W 122°22'3 3.5
2015-Jul-01 00:33N 37°48' W 122°23'8 8.2
2015-Jun-30 23:33N 37°41' W 122°20'8 7.9
2015-Jun-30 22:33N 37°34' W 122°14'2 2.1
2015-Jun-30 21:33N 37°33' W 122°11'3 2.9
2015-Jun-30 20:33N 37°30' W 122°13'0 0.0
2015-Jun-30 19:31N 37°30' W 122°13'0 0.0
2015-Jun-30 18:32N 37°30' W 122°13'1 1.5
2015-Jun-30 17:33N 37°32' W 122°12'0 0.1
2015-Jun-30 16:33N 37°32' W 122°12'3 2.7
2015-Jun-30 15:33N 37°34' W 122°13'1211.6
2015-Jun-30 14:33N 37°44' W 122°21'4 4.2
2015-Jun-30 13:33N 37°48' W 122°23'9 8.8
2015-Jun-30 12:33N 37°40' W 122°19'9 9.2
2015-Jun-30 11:33N 37°33' W 122°12'1 1.2
2015-Jun-30 10:33N 37°31' W 122°12'1 1.0
2015-Jun-30 09:33N 37°30' W 122°13'0 0.0
2015-Jun-30 08:27N 37°30' W 122°13'3 3.2
2015-Jun-30 07:33N 37°33' W 122°11'0 0.0
2015-Jun-30 06:33N 37°33' W 122°11'1 1.3
2015-Jun-30 05:33N 37°32' W 122°12'2 1.6
2015-Jun-30 04:33N 37°33' W 122°12'0 0.4
2015-Jun-30 03:33N 37°33' W 122°11'0 0.0
2015-Jun-30 02:33N 37°33' W 122°11'0 0.0
2015-Jun-30 01:33N 37°33' W 122°11'0 0.1
2015-Jun-30 00:33N 37°33' W 122°11'8 8.3
2015-Jun-29 23:33N 37°39' W 122°19'9 8.6
2015-Jun-29 22:33N 37°47' W 122°23'1 0.7
2015-Jun-29 21:33N 37°48' W 122°23'9 8.8
2015-Jun-29 20:33N 37°39' W 122°19'8 7.6
2015-Jun-29 19:33N 37°34' W 122°13'2 2.2
2015-Jun-29 18:33N 37°32' W 122°12'1 1.2
2015-Jun-29 17:33N 37°31' W 122°13'0 0.1
2015-Jun-29 15:17N 37°30' W 122°13'0 0.0
2015-Jun-29 14:25N 37°30' W 122°13'0 0.0
2015-Jun-29 08:07N 37°30' W 122°13'1 1.5
2015-Jun-29 07:33N 37°31' W 122°12'1 0.8
2015-Jun-29 06:33N 37°30' W 122°13'0 0.0
2015-Jun-29 05:33N 37°30' W 122°13'0 0.0
2015-Jun-29 04:33N 37°30' W 122°13'0 0.0
2015-Jun-29 03:33N 37°30' W 122°13'0 0.0
2015-Jun-29 02:32N 37°30' W 122°13'1 1.3
2015-Jun-29 01:33N 37°32' W 122°12'1 0.9
2015-Jun-29 00:08N 37°30' W 122°13'0 0.0
2015-Jun-28 23:31N 37°30' W 122°13'0 0.0
2015-Jun-28 22:28N 37°30' W 122°13'0 0.0
2015-Jun-28 21:29N 37°30' W 122°13'3 3.1
2015-Jun-28 20:34N 37°33' W 122°11'9 9.5
2015-Jun-28 19:33N 37°40' W 122°19'10 9.7
2015-Jun-28 18:33N 37°49' W 122°25'5 5.1
2015-Jun-28 17:33N 37°44' W 122°21'9 8.5
2015-Jun-28 16:33N 37°37' W 122°17'6 6.5
2015-Jun-28 15:33N 37°32' W 122°12'1 1.5
2015-Jun-28 14:33N 37°33' W 122°11'0 0.0
2015-Jun-28 13:33N 37°33' W 122°11'0 0.1
2015-Jun-28 12:33N 37°33' W 122°11'0 0.1
2015-Jun-28 11:33N 37°33' W 122°11'0 0.0
2015-Jun-28 10:33N 37°33' W 122°11'0 0.0
2015-Jun-28 09:33N 37°33' W 122°11'0 0.0
2015-Jun-28 08:33N 37°33' W 122°11'0 0.0
2015-Jun-28 07:33N 37°33' W 122°12'0 0.1
2015-Jun-28 06:33N 37°33' W 122°11'0 0.1
2015-Jun-28 05:33N 37°33' W 122°11'2 1.9
2015-Jun-28 04:33N 37°31' W 122°12'2 1.9
2015-Jun-28 03:33N 37°33' W 122°11'0 0.0
2015-Jun-28 02:33N 37°33' W 122°11'0 0.0
2015-Jun-28 01:33N 37°33' W 122°11'0 0.0
2015-Jun-28 00:33N 37°33' W 122°11'0 0.0
2015-Jun-27 23:33N 37°33' W 122°11'7 7.1
2015-Jun-27 22:33N 37°38' W 122°18'1010.3
2015-Jun-27 21:33N 37°47' W 122°23'2 2.0
2015-Jun-27 20:33N 37°46' W 122°22'10 9.7
2015-Jun-27 19:33N 37°37' W 122°17'6 6.4
2015-Jun-27 18:33N 37°31' W 122°12'0 0.3
2015-Jun-27 17:33N 37°31' W 122°12'1 0.3
2015-Jun-27 14:06N 37°30' W 122°13'0 0.0
2015-Jun-27 13:33N 37°30' W 122°13'0 0.0
2015-Jun-27 12:31N 37°30' W 122°13'0 0.0
2015-Jun-27 11:33N 37°30' W 122°13'0 0.0
2015-Jun-27 10:32N 37°30' W 122°13'4 4.3
2015-Jun-27 09:33N 37°34' W 122°14'9 9.2
2015-Jun-27 08:33N 37°42' W 122°20'8 8.3
2015-Jun-27 07:33N 37°49' W 122°26'9 8.6
2015-Jun-27 06:33N 37°42' W 122°20'9 9.3
2015-Jun-27 05:33N 37°34' W 122°13'4 3.9
2015-Jun-27 04:33N 37°30' W 122°13'0 0.0
2015-Jun-27 03:32N 37°30' W 122°13'0 0.0
2015-Jun-27 02:24N 37°30' W 122°13'0 0.2
2015-Jun-27 01:33N 37°31' W 122°13'0 0.1
2015-Jun-27 00:32N 37°30' W 122°13'0 0.0
2015-Jun-26 23:33N 37°30' W 122°13'0 0.0
2015-Jun-26 22:33N 37°30' W 122°13'0 0.0
2015-Jun-26 21:33N 37°30' W 122°13'0 0.0
2015-Jun-26 20:32N 37°30' W 122°13'0 0.0
2015-Jun-26 19:33N 37°30' W 122°13'0 0.0
2015-Jun-26 18:32N 37°30' W 122°13'0 0.0
2015-Jun-26 17:28N 37°30' W 122°13'0 0.0
2015-Jun-26 12:19N 37°30' W 122°13'0 0.0
2015-Jun-26 11:32N 37°30' W 122°13'3 3.0
2015-Jun-26 10:33N 37°33' W 122°11'2 1.8
2015-Jun-26 09:33N 37°31' W 122°12'0 0.0
2015-Jun-26 08:33N 37°31' W 122°12'1 1.2
2015-Jun-26 07:33N 37°33' W 122°12'3 2.5
2015-Jun-26 06:33N 37°34' W 122°14'9 8.9
2015-Jun-26 05:33N 37°42' W 122°20'9 8.6
2015-Jun-26 04:33N 37°49' W 122°25'6 6.4
2015-Jun-26 03:33N 37°44' W 122°21'8 7.9
2015-Jun-26 02:33N 37°37' W 122°17'6 6.5
2015-Jun-26 01:33N 37°32' W 122°12'1 1.0
2015-Jun-26 00:33N 37°31' W 122°13'1 1.0
2015-Jun-25 23:33N 37°31' W 122°12'1 0.9
2015-Jun-25 22:18N 37°30' W 122°13'0 0.0
2015-Jun-25 21:20N 37°30' W 122°13'0 0.0
2015-Jun-25 20:33N 37°30' W 122°13'0 0.0
2015-Jun-25 19:33N 37°30' W 122°13'3 3.0
2015-Jun-25 18:33N 37°33' W 122°12'0 0.3
2015-Jun-25 17:33N 37°33' W 122°12'7 6.9
2015-Jun-25 16:33N 37°38' W 122°18'1010.3
2015-Jun-25 15:33N 37°47' W 122°23'2 2.3
2015-Jun-25 14:33N 37°45' W 122°22'9 8.8
2015-Jun-25 13:33N 37°37' W 122°17'7 7.1
2015-Jun-25 12:33N 37°31' W 122°12'2 1.9
2015-Jun-25 11:33N 37°33' W 122°11'0 0.0
2015-Jun-25 10:33N 37°33' W 122°11'0 0.1
2015-Jun-25 09:33N 37°33' W 122°11'0 0.0
2015-Jun-25 08:33N 37°33' W 122°11'0 0.0
2015-Jun-25 07:33N 37°33' W 122°11'0 0.0
2015-Jun-25 06:33N 37°33' W 122°11'0 0.0
2015-Jun-25 05:33N 37°33' W 122°11'0 0.1
2015-Jun-25 04:33N 37°33' W 122°11'0 0.0
2015-Jun-25 03:33N 37°33' W 122°11'0 0.0
2015-Jun-25 02:33N 37°33' W 122°11'0 0.0
2015-Jun-25 01:33N 37°33' W 122°11'2 2.1
2015-Jun-25 00:32N 37°34' W 122°14'9 9.0
2015-Jun-24 23:33N 37°42' W 122°20'9 8.9
2015-Jun-24 22:33N 37°49' W 122°25'5 4.7
2015-Jun-24 21:33N 37°46' W 122°22'5 5.3
2015-Jun-24 20:33N 37°41' W 122°20'6 6.3
2015-Jun-24 19:33N 37°35' W 122°15'5 4.5
2015-Jun-24 18:30N 37°31' W 122°12'1 0.9
2015-Jun-24 17:33N 37°30' W 122°13'0 0.0
2015-Jun-24 16:32N 37°30' W 122°13'0 0.0
2015-Jun-24 15:23N 37°30' W 122°13'1 1.3
2015-Jun-24 14:32N 37°31' W 122°12'1 1.1
2015-Jun-24 13:33N 37°30' W 122°13'0 0.0
2015-Jun-24 12:14N 37°30' W 122°13'3 4.2
2015-Jun-24 11:33N 37°33' W 122°11'10 9.6
2015-Jun-24 10:33N 37°40' W 122°19'1010.0
2015-Jun-24 09:33N 37°49' W 122°25'4 4.4
2015-Jun-24 08:33N 37°46' W 122°22'7 7.5
2015-Jun-24 07:33N 37°39' W 122°19'8 8.0
2015-Jun-24 06:33N 37°33' W 122°12'0 0.2
2015-Jun-24 05:33N 37°33' W 122°12'2 1.9
2015-Jun-24 04:33N 37°34' W 122°13'7 6.6
2015-Jun-24 03:33N 37°39' W 122°19'9 9.5
2015-Jun-24 02:33N 37°48' W 122°23'2 1.9
2015-Jun-24 01:33N 37°46' W 122°22'7 6.6
2015-Jun-24 00:33N 37°40' W 122°20'6 5.8
2015-Jun-23 23:33N 37°35' W 122°15'4 4.3
2015-Jun-23 22:33N 37°31' W 122°12'2 1.9
2015-Jun-23 21:33N 37°33' W 122°11'0 0.0
2015-Jun-23 20:33N 37°33' W 122°11'3 2.9
2015-Jun-23 19:33N 37°30' W 122°13'0 0.0
2015-Jun-23 19:05N 37°30' W 122°13'2 0.1
2015-Jun-22 19:32N 37°32' W 122°12'2 1.6
2015-Jun-22 18:33N 37°30' W 122°13'0 0.0
2015-Jun-22 17:33N 37°30' W 122°13'0 0.0
2015-Jun-22 16:33N 37°30' W 122°13'1 1.2
2015-Jun-22 15:33N 37°32' W 122°12'1 1.3
2015-Jun-22 14:33N 37°30' W 122°13'0 0.1
2015-Jun-22 13:32N 37°30' W 122°13'0 0.0
2015-Jun-22 12:23N 37°30' W 122°13'0 0.0
2015-Jun-22 11:11N 37°30' W 122°13'0 0.0
2015-Jun-22 10:29N 37°30' W 122°13'0 0.0
2015-Jun-22 09:33N 37°30' W 122°13'1 1.4
2015-Jun-22 08:33N 37°32' W 122°12'5 5.1
2015-Jun-22 07:33N 37°36' W 122°16'1010.0
2015-Jun-22 06:33N 37°45' W 122°21'5 4.8
2015-Jun-22 05:33N 37°49' W 122°24'8 7.8
2015-Jun-22 04:33N 37°42' W 122°20'8 7.9
2015-Jun-22 03:33N 37°35' W 122°15'4 4.4
2015-Jun-22 02:33N 37°31' W 122°12'1 0.6
2015-Jun-22 01:33N 37°30' W 122°13'0 0.0
2015-Jun-22 00:33N 37°30' W 122°13'3 3.0
2015-Jun-21 23:33N 37°33' W 122°11'10 9.8
2015-Jun-21 22:33N 37°40' W 122°20'1010.0
2015-Jun-21 21:34N 37°49' W 122°25'5 5.4
2015-Jun-21 20:33N 37°45' W 122°22'8 7.5
2015-Jun-21 19:33N 37°38' W 122°18'7 6.7
2015-Jun-21 18:34N 37°33' W 122°12'3 3.1
2015-Jun-21 17:33N 37°30' W 122°13'0 0.0
2015-Jun-21 14:03N 37°30' W 122°13'0 0.0
2015-Jun-21 12:33N 37°30' W 122°13'0 0.0
2015-Jun-21 09:07N 37°30' W 122°13'1 2.6
2015-Jun-21 08:33N 37°32' W 122°12'1 1.4
2015-Jun-21 07:33N 37°33' W 122°11'0 0.0
2015-Jun-21 06:33N 37°33' W 122°11'0 0.1
2015-Jun-21 05:33N 37°33' W 122°11'6 5.6
2015-Jun-21 04:33N 37°37' W 122°17'9 9.5
2015-Jun-21 03:33N 37°45' W 122°22'4 3.5
2015-Jun-21 02:33N 37°48' W 122°24'  
Track history (hours):
 
Tides and Currents Weather Stations Pressure Air Temp Water Temp Dewpoint Dewpoint Depression Visibility Wind Speed Wind Dir Waves Ship Positions

Arthur Brusco

Owner: Brusco Tug & Barge, Inc, Longview, WA. More information available from US FCC via Universal Licensing System and Coast Guard Vessel Documentation Center.

Last reported at 2015-Jul-01 01:33 UTC. Time now 2015-Jul-01 01:56 UTC.
Position N 37°45' W 122°22'.

Length 35 m; draft 3.2 m.

Type: Other ship. MMSI: 271040404.

Date/timePositionNaut miles runAvg speedWind from/ knotsBaromVisibWave heightAir tempDewpointWater temp
2015-Jul-01 01:33N 37°45' W 122°22'3 3.5
2015-Jul-01 00:33N 37°48' W 122°23'8 8.2
2015-Jun-30 23:33N 37°41' W 122°20'8 7.9
2015-Jun-30 22:33N 37°34' W 122°14'2 2.1
2015-Jun-30 21:33N 37°33' W 122°11'3 2.9
2015-Jun-30 20:33N 37°30' W 122°13'0 0.0
2015-Jun-30 19:31N 37°30' W 122°13'0 0.0
2015-Jun-30 18:32N 37°30' W 122°13'1 1.5
2015-Jun-30 17:33N 37°32' W 122°12'0 0.1
2015-Jun-30 16:33N 37°32' W 122°12'3 2.7
2015-Jun-30 15:33N 37°34' W 122°13'1211.6
2015-Jun-30 14:33N 37°44' W 122°21'4 4.2
2015-Jun-30 13:33N 37°48' W 122°23'9 8.8
2015-Jun-30 12:33N 37°40' W 122°19'9 9.2
2015-Jun-30 11:33N 37°33' W 122°12'1 1.2
2015-Jun-30 10:33N 37°31' W 122°12'1 1.0
2015-Jun-30 09:33N 37°30' W 122°13'0 0.0
2015-Jun-30 08:27N 37°30' W 122°13'3 3.2
2015-Jun-30 07:33N 37°33' W 122°11'0 0.0
2015-Jun-30 06:33N 37°33' W 122°11'1 1.3
2015-Jun-30 05:33N 37°32' W 122°12'2 1.6
2015-Jun-30 04:33N 37°33' W 122°12'0 0.4
2015-Jun-30 03:33N 37°33' W 122°11'0 0.0
2015-Jun-30 02:33N 37°33' W 122°11'0 0.0
2015-Jun-30 01:33N 37°33' W 122°11'0 0.1
2015-Jun-30 00:33N 37°33' W 122°11'8 8.3
2015-Jun-29 23:33N 37°39' W 122°19'9 8.6
2015-Jun-29 22:33N 37°47' W 122°23'1 0.7
2015-Jun-29 21:33N 37°48' W 122°23'9 8.8
2015-Jun-29 20:33N 37°39' W 122°19'8 7.6
2015-Jun-29 19:33N 37°34' W 122°13'2 2.2
2015-Jun-29 18:33N 37°32' W 122°12'1 1.2
2015-Jun-29 17:33N 37°31' W 122°13'0 0.1
2015-Jun-29 15:17N 37°30' W 122°13'0 0.0
2015-Jun-29 14:25N 37°30' W 122°13'0 0.0
2015-Jun-29 08:07N 37°30' W 122°13'1 1.5
2015-Jun-29 07:33N 37°31' W 122°12'1 0.8
2015-Jun-29 06:33N 37°30' W 122°13'0 0.0
2015-Jun-29 05:33N 37°30' W 122°13'0 0.0
2015-Jun-29 04:33N 37°30' W 122°13'0 0.0
2015-Jun-29 03:33N 37°30' W 122°13'0 0.0
2015-Jun-29 02:32N 37°30' W 122°13'1 1.3
2015-Jun-29 01:33N 37°32' W 122°12'1 0.9
2015-Jun-29 00:08N 37°30' W 122°13'0 0.0
2015-Jun-28 23:31N 37°30' W 122°13'0 0.0
2015-Jun-28 22:28N 37°30' W 122°13'0 0.0
2015-Jun-28 21:29N 37°30' W 122°13'3 3.1
2015-Jun-28 20:34N 37°33' W 122°11'9 9.5
2015-Jun-28 19:33N 37°40' W 122°19'10 9.7
2015-Jun-28 18:33N 37°49' W 122°25'5 5.1
2015-Jun-28 17:33N 37°44' W 122°21'9 8.5
2015-Jun-28 16:33N 37°37' W 122°17'6 6.5
2015-Jun-28 15:33N 37°32' W 122°12'1 1.5
2015-Jun-28 14:33N 37°33' W 122°11'0 0.0
2015-Jun-28 13:33N 37°33' W 122°11'0 0.1
2015-Jun-28 12:33N 37°33' W 122°11'0 0.1
2015-Jun-28 11:33N 37°33' W 122°11'0 0.0
2015-Jun-28 10:33N 37°33' W 122°11'0 0.0
2015-Jun-28 09:33N 37°33' W 122°11'0 0.0
2015-Jun-28 08:33N 37°33' W 122°11'0 0.0
2015-Jun-28 07:33N 37°33' W 122°12'0 0.1
2015-Jun-28 06:33N 37°33' W 122°11'0 0.1
2015-Jun-28 05:33N 37°33' W 122°11'2 1.9
2015-Jun-28 04:33N 37°31' W 122°12'2 1.9
2015-Jun-28 03:33N 37°33' W 122°11'0 0.0
2015-Jun-28 02:33N 37°33' W 122°11'0 0.0
2015-Jun-28 01:33N 37°33' W 122°11'0 0.0
2015-Jun-28 00:33N 37°33' W 122°11'0 0.0
2015-Jun-27 23:33N 37°33' W 122°11'7 7.1
2015-Jun-27 22:33N 37°38' W 122°18'1010.3
2015-Jun-27 21:33N 37°47' W 122°23'2 2.0
2015-Jun-27 20:33N 37°46' W 122°22'10 9.7
2015-Jun-27 19:33N 37°37' W 122°17'6 6.4
2015-Jun-27 18:33N 37°31' W 122°12'0 0.3
2015-Jun-27 17:33N 37°31' W 122°12'1 0.3
2015-Jun-27 14:06N 37°30' W 122°13'0 0.0
2015-Jun-27 13:33N 37°30' W 122°13'0 0.0
2015-Jun-27 12:31N 37°30' W 122°13'0 0.0
2015-Jun-27 11:33N 37°30' W 122°13'0 0.0
2015-Jun-27 10:32N 37°30' W 122°13'4 4.3
2015-Jun-27 09:33N 37°34' W 122°14'9 9.2
2015-Jun-27 08:33N 37°42' W 122°20'8 8.3
2015-Jun-27 07:33N 37°49' W 122°26'9 8.6
2015-Jun-27 06:33N 37°42' W 122°20'9 9.3
2015-Jun-27 05:33N 37°34' W 122°13'4 3.9
2015-Jun-27 04:33N 37°30' W 122°13'0 0.0
2015-Jun-27 03:32N 37°30' W 122°13'0 0.0
2015-Jun-27 02:24N 37°30' W 122°13'0 0.2
2015-Jun-27 01:33N 37°31' W 122°13'0 0.1
2015-Jun-27 00:32N 37°30' W 122°13'0 0.0
2015-Jun-26 23:33N 37°30' W 122°13'0 0.0
2015-Jun-26 22:33N 37°30' W 122°13'0 0.0
2015-Jun-26 21:33N 37°30' W 122°13'0 0.0
2015-Jun-26 20:32N 37°30' W 122°13'0 0.0
2015-Jun-26 19:33N 37°30' W 122°13'0 0.0
2015-Jun-26 18:32N 37°30' W 122°13'0 0.0
2015-Jun-26 17:28N 37°30' W 122°13'0 0.0
2015-Jun-26 12:19N 37°30' W 122°13'0 0.0
2015-Jun-26 11:32N 37°30' W 122°13'3 3.0
2015-Jun-26 10:33N 37°33' W 122°11'2 1.8
2015-Jun-26 09:33N 37°31' W 122°12'0 0.0
2015-Jun-26 08:33N 37°31' W 122°12'1 1.2
2015-Jun-26 07:33N 37°33' W 122°12'3 2.5
2015-Jun-26 06:33N 37°34' W 122°14'9 8.9
2015-Jun-26 05:33N 37°42' W 122°20'9 8.6
2015-Jun-26 04:33N 37°49' W 122°25'6 6.4
2015-Jun-26 03:33N 37°44' W 122°21'8 7.9
2015-Jun-26 02:33N 37°37' W 122°17'6 6.5
2015-Jun-26 01:33N 37°32' W 122°12'1 1.0
2015-Jun-26 00:33N 37°31' W 122°13'1 1.0
2015-Jun-25 23:33N 37°31' W 122°12'1 0.9
2015-Jun-25 22:18N 37°30' W 122°13'0 0.0
2015-Jun-25 21:20N 37°30' W 122°13'0 0.0
2015-Jun-25 20:33N 37°30' W 122°13'0 0.0
2015-Jun-25 19:33N 37°30' W 122°13'3 3.0
2015-Jun-25 18:33N 37°33' W 122°12'0 0.3
2015-Jun-25 17:33N 37°33' W 122°12'7 6.9
2015-Jun-25 16:33N 37°38' W 122°18'1010.3
2015-Jun-25 15:33N 37°47' W 122°23'2 2.3
2015-Jun-25 14:33N 37°45' W 122°22'9 8.8
2015-Jun-25 13:33N 37°37' W 122°17'7 7.1
2015-Jun-25 12:33N 37°31' W 122°12'2 1.9
2015-Jun-25 11:33N 37°33' W 122°11'0 0.0
2015-Jun-25 10:33N 37°33' W 122°11'0 0.1
2015-Jun-25 09:33N 37°33' W 122°11'0 0.0
2015-Jun-25 08:33N 37°33' W 122°11'0 0.0
2015-Jun-25 07:33N 37°33' W 122°11'0 0.0
2015-Jun-25 06:33N 37°33' W 122°11'0 0.0
2015-Jun-25 05:33N 37°33' W 122°11'0 0.1
2015-Jun-25 04:33N 37°33' W 122°11'0 0.0
2015-Jun-25 03:33N 37°33' W 122°11'0 0.0
2015-Jun-25 02:33N 37°33' W 122°11'0 0.0
2015-Jun-25 01:33N 37°33' W 122°11'2 2.1
2015-Jun-25 00:32N 37°34' W 122°14'9 9.0
2015-Jun-24 23:33N 37°42' W 122°20'9 8.9
2015-Jun-24 22:33N 37°49' W 122°25'5 4.7
2015-Jun-24 21:33N 37°46' W 122°22'5 5.3
2015-Jun-24 20:33N 37°41' W 122°20'6 6.3
2015-Jun-24 19:33N 37°35' W 122°15'5 4.5
2015-Jun-24 18:30N 37°31' W 122°12'1 0.9
2015-Jun-24 17:33N 37°30' W 122°13'0 0.0
2015-Jun-24 16:32N 37°30' W 122°13'0 0.0
2015-Jun-24 15:23N 37°30' W 122°13'1 1.3
2015-Jun-24 14:32N 37°31' W 122°12'1 1.1
2015-Jun-24 13:33N 37°30' W 122°13'0 0.0
2015-Jun-24 12:14N 37°30' W 122°13'3 4.2
2015-Jun-24 11:33N 37°33' W 122°11'10 9.6
2015-Jun-24 10:33N 37°40' W 122°19'1010.0
2015-Jun-24 09:33N 37°49' W 122°25'4 4.4
2015-Jun-24 08:33N 37°46' W 122°22'7 7.5
2015-Jun-24 07:33N 37°39' W 122°19'8 8.0
2015-Jun-24 06:33N 37°33' W 122°12'0 0.2
2015-Jun-24 05:33N 37°33' W 122°12'2 1.9
2015-Jun-24 04:33N 37°34' W 122°13'7 6.6
2015-Jun-24 03:33N 37°39' W 122°19'9 9.5
2015-Jun-24 02:33N 37°48' W 122°23'2 1.9
2015-Jun-24 01:33N 37°46' W 122°22'7 6.6
2015-Jun-24 00:33N 37°40' W 122°20'6 5.8
2015-Jun-23 23:33N 37°35' W 122°15'4 4.3
2015-Jun-23 22:33N 37°31' W 122°12'2 1.9
2015-Jun-23 21:33N 37°33' W 122°11'0 0.0
2015-Jun-23 20:33N 37°33' W 122°11'3 2.9
2015-Jun-23 19:33N 37°30' W 122°13'0 0.0
2015-Jun-23 19:05N 37°30' W 122°13'2 0.1
2015-Jun-22 19:32N 37°32' W 122°12'2 1.6
2015-Jun-22 18:33N 37°30' W 122°13'0 0.0
2015-Jun-22 17:33N 37°30' W 122°13'0 0.0
2015-Jun-22 16:33N 37°30' W 122°13'1 1.2
2015-Jun-22 15:33N 37°32' W 122°12'1 1.3
2015-Jun-22 14:33N 37°30' W 122°13'0 0.1
2015-Jun-22 13:32N 37°30' W 122°13'0 0.0
2015-Jun-22 12:23N 37°30' W 122°13'0 0.0
2015-Jun-22 11:11N 37°30' W 122°13'0 0.0
2015-Jun-22 10:29N 37°30' W 122°13'0 0.0
2015-Jun-22 09:33N 37°30' W 122°13'1 1.4
2015-Jun-22 08:33N 37°32' W 122°12'5 5.1
2015-Jun-22 07:33N 37°36' W 122°16'1010.0
2015-Jun-22 06:33N 37°45' W 122°21'5 4.8
2015-Jun-22 05:33N 37°49' W 122°24'8 7.8
2015-Jun-22 04:33N 37°42' W 122°20'8 7.9
2015-Jun-22 03:33N 37°35' W 122°15'4 4.4
2015-Jun-22 02:33N 37°31' W 122°12'1 0.6
2015-Jun-22 01:33N 37°30' W 122°13'0 0.0
2015-Jun-22 00:33N 37°30' W 122°13'3 3.0
2015-Jun-21 23:33N 37°33' W 122°11'10 9.8
2015-Jun-21 22:33N 37°40' W 122°20'1010.0
2015-Jun-21 21:34N 37°49' W 122°25'5 5.4
2015-Jun-21 20:33N 37°45' W 122°22'8 7.5
2015-Jun-21 19:33N 37°38' W 122°18'7 6.7
2015-Jun-21 18:34N 37°33' W 122°12'3 3.1
2015-Jun-21 17:33N 37°30' W 122°13'0 0.0
2015-Jun-21 14:03N 37°30' W 122°13'0 0.0
2015-Jun-21 12:33N 37°30' W 122°13'0 0.0
2015-Jun-21 09:07N 37°30' W 122°13'1 2.6
2015-Jun-21 08:33N 37°32' W 122°12'1 1.4
2015-Jun-21 07:33N 37°33' W 122°11'0 0.0
2015-Jun-21 06:33N 37°33' W 122°11'0 0.1
2015-Jun-21 05:33N 37°33' W 122°11'6 5.6
2015-Jun-21 04:33N 37°37' W 122°17'9 9.5
2015-Jun-21 03:33N 37°45' W 122°22'4 3.5
2015-Jun-21 02:33N 37°48' W 122°24'  

Dump ship's entire track history